createdAt,value
2022-12-01T00:01:06.794Z,87.54
2022-12-01T00:03:55.426Z,87.43
2022-12-01T00:06:43.990Z,88.12
2022-12-01T00:09:50.304Z,87.29
2022-12-01T00:12:43.483Z,88.34
2022-12-01T00:15:34.920Z,88.32
2022-12-01T00:18:23.622Z,86.58
2022-12-01T00:21:15.054Z,87.54
2022-12-01T00:24:03.539Z,89.30
2022-12-01T00:26:52.089Z,89.57
2022-12-01T00:29:41.931Z,88.19
2022-12-01T00:32:30.978Z,89.34
2022-12-01T00:35:19.551Z,91.01
2022-12-01T00:38:08.007Z,91.97
2022-12-01T00:40:56.481Z,93.87
2022-12-01T00:43:44.943Z,94.63
2022-12-01T00:46:37.909Z,94.73
2022-12-01T00:49:26.411Z,95.63
2022-12-01T00:52:15.226Z,95.55
2022-12-01T00:55:03.678Z,96.92
2022-12-01T00:57:52.110Z,96.99
2022-12-01T01:00:40.575Z,96.59
2022-12-01T01:03:31.328Z,98.13
2022-12-01T01:06:19.808Z,98.98
2022-12-01T01:09:08.316Z,97.04
2022-12-01T01:11:56.803Z,97.43
2022-12-01T01:14:45.560Z,98.58
2022-12-01T01:17:34.359Z,98.24
2022-12-01T01:20:24.159Z,98.20
2022-12-01T01:23:12.645Z,99.35
2022-12-01T01:26:05.380Z,99.60
2022-12-01T01:28:54.484Z,100.00
2022-12-01T01:31:42.954Z,99.74
2022-12-01T01:34:31.568Z,99.74
2022-12-01T01:37:21.773Z,99.14
2022-12-01T01:40:11.433Z,98.76
2022-12-01T01:42:59.904Z,98.57
2022-12-01T01:45:48.380Z,99.04
2022-12-01T01:48:37.778Z,98.65
2022-12-01T01:51:28.303Z,98.66
2022-12-01T01:54:20.500Z,97.59
2022-12-01T01:57:10.948Z,97.29
2022-12-01T02:00:02.915Z,96.53
2022-12-01T02:02:51.728Z,97.91
2022-12-01T02:05:40.810Z,97.00
2022-12-01T02:08:29.793Z,96.59
2022-12-01T02:11:49.343Z,95.91
2022-12-01T02:14:50.924Z,96.33
2022-12-01T02:17:46.586Z,95.20
2022-12-01T02:21:04.073Z,96.08
2022-12-01T02:24:42.749Z,92.60
2022-12-01T02:27:43.536Z,91.67
2022-12-01T02:30:41.850Z,91.54
2022-12-01T02:33:33.813Z,91.85
2022-12-01T02:36:28.496Z,90.81
2022-12-01T02:39:21.573Z,87.61
2022-12-01T02:42:33.987Z,86.90
2022-12-01T02:45:29.681Z,86.30
2022-12-01T02:48:23.711Z,86.43
2022-12-01T02:51:15.804Z,86.34
2022-12-01T02:54:04.879Z,86.82
2022-12-01T02:56:53.759Z,85.45
2022-12-01T02:59:43.535Z,85.84
2022-12-01T03:02:42.251Z,85.79
2022-12-01T03:05:39.324Z,86.62
2022-12-01T03:08:33.726Z,87.50
2022-12-01T03:11:35.218Z,86.52
2022-12-01T03:14:33.900Z,87.30
2022-12-01T03:17:29.026Z,86.59
2022-12-01T03:20:21.815Z,86.29
2022-12-01T03:23:14.300Z,85.95
2022-12-01T03:26:06.964Z,85.39
2022-12-01T03:28:57.787Z,85.97
2022-12-01T03:31:50.094Z,86.28
2022-12-01T03:34:41.647Z,87.04
2022-12-01T03:37:34.110Z,86.15
2022-12-01T03:40:27.480Z,86.72
2022-12-01T03:43:19.647Z,86.70
2022-12-01T03:46:11.783Z,87.15
2022-12-01T03:49:00.375Z,86.18
2022-12-01T03:51:51.618Z,86.34
2022-12-01T03:54:46.685Z,86.90
2022-12-01T03:57:39.808Z,85.19
2022-12-01T04:00:28.633Z,84.84
2022-12-01T04:03:19.088Z,84.61
2022-12-01T04:06:07.993Z,84.42
2022-12-01T04:08:56.502Z,85.05
2022-12-01T04:12:02.567Z,86.15
2022-12-01T04:14:52.402Z,86.66
2022-12-01T04:17:43.227Z,86.91
2022-12-01T04:20:31.649Z,86.65
2022-12-01T04:23:34.028Z,86.66
2022-12-01T04:26:22.480Z,88.01
2022-12-01T04:29:11.949Z,87.53
2022-12-01T04:32:01.796Z,88.06
2022-12-01T04:34:50.241Z,87.98
2022-12-01T04:37:39.273Z,87.99
2022-12-01T04:40:27.750Z,88.21
2022-12-01T04:43:16.233Z,88.52
2022-12-01T04:46:05.199Z,89.54
2022-12-01T04:48:55.029Z,90.02
2022-12-01T04:51:43.498Z,89.77
2022-12-01T04:54:32.040Z,89.55
2022-12-01T04:57:20.466Z,90.63
2022-12-01T05:00:13.243Z,90.38
2022-12-01T05:03:02.180Z,90.78
2022-12-01T05:06:01.941Z,91.67
2022-12-01T05:08:51.324Z,91.22
2022-12-01T05:11:39.729Z,91.22
2022-12-01T05:14:28.360Z,90.92
2022-12-01T05:17:16.798Z,91.38
2022-12-01T05:20:23.689Z,91.97
2022-12-01T05:23:16.791Z,91.25
2022-12-01T05:26:07.510Z,92.14
2022-12-01T05:28:55.980Z,92.29
2022-12-01T05:31:46.211Z,92.13
2022-12-01T05:34:34.748Z,91.98
2022-12-01T05:37:23.189Z,92.87
2022-12-01T05:40:13.842Z,92.62
2022-12-01T05:43:02.546Z,93.14
2022-12-01T05:45:51.097Z,93.01
2022-12-01T05:48:39.585Z,93.43
2022-12-01T05:51:28.054Z,94.24
2022-12-01T05:54:17.209Z,95.35
2022-12-01T05:57:07.201Z,94.51
2022-12-01T05:59:55.769Z,93.70
2022-12-01T06:02:44.817Z,94.01
2022-12-01T06:05:33.274Z,94.02
2022-12-01T06:08:21.723Z,94.37
2022-12-01T06:11:10.174Z,93.94
2022-12-01T06:14:00.005Z,93.70
2022-12-01T06:16:48.466Z,94.30
2022-12-01T06:19:36.957Z,94.74
2022-12-01T06:22:25.377Z,94.21
2022-12-01T06:25:13.894Z,94.55
2022-12-01T06:28:02.458Z,94.28
2022-12-01T06:30:54.506Z,94.09
2022-12-01T06:33:46.367Z,93.49
2022-12-01T06:36:34.882Z,92.90
2022-12-01T06:39:23.331Z,92.58
2022-12-01T06:42:12.010Z,93.03
2022-12-01T06:45:00.547Z,92.34
2022-12-01T06:47:54.248Z,96.10
2022-12-01T06:50:42.705Z,96.03
2022-12-01T06:53:31.265Z,90.94
2022-12-01T06:56:19.746Z,90.05
2022-12-01T06:59:08.810Z,90.24
2022-12-01T07:01:58.324Z,90.78
2022-12-01T07:04:48.393Z,90.76
2022-12-01T07:07:38.054Z,91.18
2022-12-01T07:10:27.698Z,90.78
2022-12-01T07:13:16.094Z,90.94
2022-12-01T07:16:05.207Z,91.25
2022-12-01T07:18:53.764Z,91.41
2022-12-01T07:21:43.613Z,91.43
2022-12-01T07:24:32.101Z,91.93
2022-12-01T07:27:20.561Z,92.10
2022-12-01T07:30:10.746Z,92.94
2022-12-01T07:32:59.193Z,92.85
2022-12-01T07:35:47.685Z,93.32
2022-12-01T07:38:37.848Z,94.67
2022-12-01T07:41:26.336Z,94.25
2022-12-01T07:44:14.930Z,94.60
2022-12-01T07:47:03.359Z,94.94
2022-12-01T07:49:52.010Z,95.41
2022-12-01T07:52:40.523Z,95.14
2022-12-01T07:55:30.397Z,94.93
2022-12-01T07:58:18.841Z,95.52
2022-12-01T08:01:08.260Z,95.39
2022-12-01T08:03:58.137Z,95.46
2022-12-01T08:06:46.619Z,95.91
2022-12-01T08:09:35.077Z,95.56
2022-12-01T08:12:24.917Z,95.59
2022-12-01T08:15:13.448Z,94.21
2022-12-01T08:18:03.551Z,93.34
2022-12-01T08:20:52.447Z,94.28
2022-12-01T08:23:41.540Z,94.19
2022-12-01T08:26:30.118Z,93.53
2022-12-01T08:29:20.536Z,94.34
2022-12-01T08:32:09.109Z,93.88
2022-12-01T08:34:57.652Z,94.19
2022-12-01T08:37:46.155Z,94.76
2022-12-01T08:40:34.684Z,96.13
2022-12-01T08:43:49.667Z,96.22
2022-12-01T08:46:35.140Z,95.50
2022-12-01T08:49:23.929Z,95.15
2022-12-01T08:52:12.453Z,95.57
2022-12-01T08:55:01.134Z,95.39
2022-12-01T08:57:49.662Z,95.70
2022-12-01T09:00:38.142Z,95.77
2022-12-01T09:03:27.986Z,95.04
2022-12-01T09:06:20.147Z,93.12
2022-12-01T09:09:09.273Z,93.00
2022-12-01T09:11:58.171Z,93.82
2022-12-01T09:14:49.834Z,92.22
2022-12-01T09:17:38.454Z,92.90
2022-12-01T09:20:32.396Z,93.73
2022-12-01T09:23:21.772Z,94.27
2022-12-01T09:26:13.539Z,93.32
2022-12-01T09:29:04.479Z,93.95
2022-12-01T09:31:56.005Z,93.71
2022-12-01T09:34:44.536Z,93.06
2022-12-01T09:37:34.411Z,93.22
2022-12-01T09:40:32.684Z,93.62
2022-12-01T09:43:22.974Z,93.84
2022-12-01T09:46:16.823Z,93.72
2022-12-01T09:49:05.542Z,94.11
2022-12-01T09:51:55.017Z,94.26
2022-12-01T09:54:45.129Z,92.26
2022-12-01T09:57:36.580Z,91.94
2022-12-01T10:00:27.152Z,92.59
2022-12-01T10:03:22.992Z,94.02
2022-12-01T10:06:27.304Z,94.10
2022-12-01T10:09:24.458Z,93.99
2022-12-01T10:12:16.614Z,94.21
2022-12-01T10:15:26.138Z,93.75
2022-12-01T10:18:24.466Z,93.41
2022-12-01T10:21:25.147Z,93.03
2022-12-01T10:24:22.874Z,92.48
2022-12-01T10:27:18.516Z,89.83
2022-12-01T10:30:10.648Z,91.00
2022-12-01T10:33:03.808Z,91.11
2022-12-01T10:35:52.757Z,91.24
2022-12-01T10:38:41.291Z,91.48
2022-12-01T10:41:31.684Z,91.45
2022-12-01T10:44:21.530Z,91.31
2022-12-01T10:47:18.650Z,91.65
2022-12-01T10:50:08.518Z,90.78
2022-12-01T10:52:57.026Z,91.36
2022-12-01T10:55:48.075Z,91.87
2022-12-01T10:58:44.573Z,91.61
2022-12-01T11:01:35.962Z,92.41
2022-12-01T11:04:45.897Z,92.02
2022-12-01T11:07:35.610Z,91.23
2022-12-01T11:10:25.541Z,90.30
2022-12-01T11:13:19.776Z,89.71
2022-12-01T11:16:10.784Z,90.35
2022-12-01T11:19:09.736Z,90.96
2022-12-01T11:21:59.913Z,91.27
2022-12-01T11:24:59.218Z,90.66
2022-12-01T11:27:50.863Z,91.39
2022-12-01T11:30:39.530Z,90.03
2022-12-01T11:33:29.157Z,88.44
2022-12-01T11:36:27.529Z,89.28
2022-12-01T11:39:23.864Z,88.54
2022-12-01T11:42:22.148Z,88.16
2022-12-01T11:45:25.490Z,88.72
2022-12-01T11:48:25.567Z,89.19
2022-12-01T11:51:27.665Z,89.00
2022-12-01T11:54:18.723Z,89.79
2022-12-01T11:57:33.151Z,89.51
2022-12-01T12:00:20.978Z,89.48
2022-12-01T12:03:20.917Z,89.98
2022-12-01T12:09:40.225Z,88.73
2022-12-01T12:12:44.592Z,87.91
2022-12-01T12:15:41.807Z,88.62
2022-12-01T12:18:45.042Z,88.47
2022-12-01T12:21:35.405Z,88.85
2022-12-01T12:24:37.884Z,87.77
2022-12-01T12:27:32.876Z,88.43
2022-12-01T12:30:24.288Z,88.64
2022-12-01T12:33:44.136Z,89.24
2022-12-01T12:36:41.456Z,89.86
2022-12-01T12:39:42.372Z,88.73
2022-12-01T12:42:37.878Z,89.21
2022-12-01T12:45:29.317Z,89.69
2022-12-01T12:48:25.867Z,90.09
2022-12-01T12:51:17.309Z,90.45
2022-12-01T12:54:14.958Z,89.33
2022-12-01T12:57:07.301Z,89.21
2022-12-01T12:59:59.264Z,89.29
2022-12-01T13:02:50.976Z,88.43
2022-12-01T13:05:43.913Z,88.40
2022-12-01T13:08:36.569Z,88.63
2022-12-01T13:11:28.148Z,88.65
2022-12-01T13:14:22.158Z,88.71
2022-12-01T13:17:17.688Z,88.43
2022-12-01T13:20:07.573Z,88.32
2022-12-01T13:22:57.470Z,89.19
2022-12-01T13:25:49.126Z,88.50
2022-12-01T13:28:40.798Z,89.20
2022-12-01T13:31:30.716Z,89.64
2022-12-01T13:34:23.098Z,90.03
2022-12-01T13:37:11.868Z,87.89
2022-12-01T13:40:10.514Z,88.13
2022-12-01T13:43:06.988Z,88.36
2022-12-01T13:46:03.449Z,88.84
2022-12-01T13:48:56.668Z,89.11
2022-12-01T13:52:22.045Z,89.34
2022-12-01T13:55:29.021Z,89.10
2022-12-01T13:58:26.463Z,89.92
2022-12-01T14:01:46.841Z,90.63
2022-12-01T14:04:37.188Z,91.17
2022-12-01T14:07:34.953Z,90.75
2022-12-01T14:10:30.217Z,90.12
2022-12-01T14:13:21.245Z,90.30
2022-12-01T14:16:10.732Z,91.06
2022-12-01T14:19:00.270Z,90.50
2022-12-01T14:21:50.509Z,90.07
2022-12-01T14:24:41.373Z,90.98
2022-12-01T14:27:38.372Z,91.27
2022-12-01T14:31:03.194Z,91.68
2022-12-01T14:33:54.251Z,91.46
2022-12-01T14:36:43.921Z,91.46
2022-12-01T14:39:36.040Z,90.61
2022-12-01T14:42:48.471Z,90.61
2022-12-01T14:45:41.928Z,91.48
2022-12-01T14:48:35.997Z,91.91
2022-12-01T14:51:28.286Z,92.39
2022-12-01T14:54:21.537Z,93.29
2022-12-01T14:57:16.575Z,93.18
2022-12-01T15:00:09.350Z,93.36
2022-12-01T15:02:59.448Z,93.60
2022-12-01T15:05:47.894Z,93.41
2022-12-01T15:08:45.784Z,93.45
2022-12-01T15:11:52.426Z,93.56
2022-12-01T15:14:49.224Z,93.19
2022-12-01T15:17:38.149Z,93.55
2022-12-01T15:20:32.198Z,93.37
2022-12-01T15:23:20.665Z,93.74
2022-12-01T15:26:18.069Z,94.05
2022-12-01T15:29:15.058Z,94.22
2022-12-01T15:32:07.965Z,94.29
2022-12-01T15:34:57.110Z,94.78
2022-12-01T15:37:46.037Z,94.14
2022-12-01T15:43:43.123Z,92.03
2022-12-01T15:46:34.178Z,92.07
2022-12-01T15:49:29.444Z,92.30
2022-12-01T15:52:18.702Z,92.20
2022-12-01T15:55:07.961Z,92.18
2022-12-01T15:57:56.897Z,92.46
2022-12-01T16:01:00.935Z,92.47
2022-12-01T16:03:53.273Z,91.83
2022-12-01T16:06:43.390Z,91.67
2022-12-01T16:09:35.604Z,91.99
2022-12-01T16:12:26.107Z,91.02
2022-12-01T16:15:18.368Z,90.99
2022-12-01T16:18:27.505Z,91.73
2022-12-01T16:21:17.141Z,92.71
2022-12-01T16:24:07.729Z,93.29
2022-12-01T16:26:59.569Z,93.26
2022-12-01T16:29:51.264Z,93.14
2022-12-01T16:32:41.825Z,93.51
2022-12-01T16:35:33.648Z,93.31
2022-12-01T16:38:24.532Z,93.82
2022-12-01T16:41:19.019Z,93.48
2022-12-01T16:44:27.554Z,93.50
2022-12-01T16:47:17.851Z,92.82
2022-12-01T16:50:07.318Z,92.88
2022-12-01T16:52:55.811Z,93.67
2022-12-01T16:55:47.690Z,93.41
2022-12-01T16:58:37.624Z,92.73
2022-12-01T17:01:26.176Z,92.52
2022-12-01T17:04:14.697Z,93.08
2022-12-01T17:07:03.235Z,93.18
2022-12-01T17:09:52.992Z,93.35
2022-12-01T17:12:41.772Z,93.54
2022-12-01T17:15:31.741Z,94.78
2022-12-01T17:18:21.751Z,95.25
2022-12-01T17:21:11.884Z,95.88
2022-12-01T17:24:00.394Z,96.76
2022-12-01T17:26:48.905Z,95.99
2022-12-01T17:29:44.468Z,95.72
2022-12-01T17:32:35.917Z,95.33
2022-12-01T17:35:24.468Z,95.35
2022-12-01T17:38:13.041Z,95.50
2022-12-01T17:41:05.679Z,95.51
2022-12-01T17:43:54.217Z,94.71
2022-12-01T17:46:42.836Z,95.19
2022-12-01T17:49:32.871Z,95.30
2022-12-01T17:52:26.662Z,94.17
2022-12-01T17:55:16.922Z,94.65
2022-12-01T17:58:05.452Z,94.73
2022-12-01T18:00:54.733Z,95.10
2022-12-01T18:03:43.451Z,95.47
2022-12-01T18:06:33.424Z,95.75
2022-12-01T18:09:22.212Z,96.06
2022-12-01T18:12:10.754Z,96.19
2022-12-01T18:14:59.308Z,96.26
2022-12-01T18:17:48.040Z,96.61
2022-12-01T18:20:41.113Z,95.09
2022-12-01T18:23:30.977Z,95.14
2022-12-01T18:26:21.939Z,94.72
2022-12-01T18:29:13.720Z,95.23
2022-12-01T18:32:02.202Z,94.91
2022-12-01T18:34:50.841Z,95.03
2022-12-01T18:37:40.385Z,94.42
2022-12-01T18:40:30.306Z,94.84
2022-12-01T18:43:18.828Z,95.89
2022-12-01T18:46:07.716Z,96.95
2022-12-01T18:49:00.688Z,96.99
2022-12-01T18:51:49.203Z,97.84
2022-12-01T18:54:37.698Z,98.46
2022-12-01T18:57:28.053Z,98.73
2022-12-01T19:00:17.166Z,98.19
2022-12-01T19:03:05.637Z,96.96
2022-12-01T19:05:54.192Z,96.69
2022-12-01T19:08:43.042Z,97.12
2022-12-01T19:11:31.876Z,96.72
2022-12-01T19:14:23.517Z,96.69
2022-12-01T19:17:12.030Z,97.21
2022-12-01T19:20:00.546Z,97.00
2022-12-01T19:22:49.066Z,97.57
2022-12-01T19:25:37.748Z,98.22
2022-12-01T19:28:26.304Z,97.98
2022-12-01T19:31:18.563Z,97.48
2022-12-01T19:34:07.399Z,97.68
2022-12-01T19:36:56.821Z,96.24
2022-12-01T19:39:45.392Z,97.00
2022-12-01T19:42:33.879Z,98.21
2022-12-01T19:45:22.417Z,98.55
2022-12-01T19:48:12.421Z,99.35
2022-12-01T19:51:01.310Z,99.16
2022-12-01T19:53:50.427Z,99.37
2022-12-01T19:56:38.904Z,99.38
2022-12-01T19:59:27.412Z,99.39
2022-12-01T20:02:15.890Z,99.33
2022-12-01T20:05:06.522Z,99.62
2022-12-01T20:07:55.053Z,99.48
2022-12-01T20:10:48.061Z,99.74
2022-12-01T20:13:39.131Z,99.92
2022-12-01T20:16:28.609Z,100.00
2022-12-01T20:19:17.170Z,100.00
2022-12-01T20:22:06.997Z,100.00
2022-12-01T20:24:55.497Z,100.00
2022-12-01T20:27:45.407Z,100.00
2022-12-01T20:30:33.963Z,100.00
2022-12-01T20:33:22.803Z,100.00
2022-12-01T20:36:11.720Z,100.00
2022-12-01T20:39:01.648Z,100.00
2022-12-01T20:41:50.152Z,100.00
2022-12-01T20:44:40.067Z,100.00
2022-12-01T20:47:28.619Z,100.00
2022-12-01T20:50:17.185Z,100.00
2022-12-01T20:53:05.996Z,100.00
2022-12-01T20:55:56.617Z,100.00
2022-12-01T20:58:45.182Z,100.00
2022-12-01T21:01:33.784Z,100.00
2022-12-01T21:04:22.473Z,100.00
2022-12-01T21:07:11.007Z,100.00
2022-12-01T21:09:59.507Z,100.00
2022-12-01T21:13:16.862Z,100.00
2022-12-01T21:16:10.838Z,100.00
2022-12-01T21:19:06.379Z,100.00
2022-12-01T21:21:54.843Z,100.00
2022-12-01T21:24:51.195Z,100.00
2022-12-01T21:27:39.972Z,100.00
2022-12-01T21:30:30.324Z,100.00
2022-12-01T21:33:28.402Z,100.00
2022-12-01T21:36:18.681Z,100.00
2022-12-01T21:39:14.905Z,100.00
2022-12-01T21:42:15.349Z,100.00
2022-12-01T21:45:07.157Z,100.00
2022-12-01T21:48:00.815Z,100.00
2022-12-01T21:50:54.031Z,100.00
2022-12-01T21:53:42.786Z,100.00
2022-12-01T21:56:32.155Z,100.00
2022-12-01T21:59:22.351Z,100.00
2022-12-01T22:02:30.615Z,100.00
2022-12-01T22:05:28.289Z,100.00
2022-12-01T22:08:24.555Z,100.00
2022-12-01T22:11:18.525Z,100.00
2022-12-01T22:14:14.125Z,100.00
2022-12-01T22:17:15.763Z,100.00
2022-12-01T22:20:18.853Z,100.00
2022-12-01T22:23:11.884Z,100.00
2022-12-01T22:26:00.394Z,100.00
2022-12-01T22:28:49.565Z,100.00
2022-12-01T22:31:38.055Z,100.00
2022-12-01T22:34:26.567Z,100.00
2022-12-01T22:37:15.901Z,100.00
2022-12-01T22:40:35.802Z,100.00
2022-12-01T22:43:27.126Z,100.00
2022-12-01T22:46:31.445Z,100.00
2022-12-01T22:49:22.263Z,100.00
2022-12-01T22:52:18.381Z,100.00
2022-12-01T22:55:14.975Z,100.00
2022-12-01T22:58:12.772Z,100.00
2022-12-01T23:01:03.718Z,100.00
2022-12-01T23:03:55.652Z,100.00
2022-12-01T23:07:00.320Z,100.00
2022-12-01T23:09:48.901Z,100.00
2022-12-01T23:12:37.879Z,100.00
2022-12-01T23:15:34.644Z,100.00
2022-12-01T23:18:24.873Z,100.00
2022-12-01T23:21:13.420Z,100.00
2022-12-01T23:24:03.404Z,100.00
2022-12-01T23:26:51.927Z,100.00
2022-12-01T23:29:40.413Z,100.00
2022-12-01T23:32:30.210Z,100.00
2022-12-01T23:35:19.401Z,100.00
2022-12-01T23:38:11.523Z,100.00
2022-12-01T23:41:02.053Z,100.00
2022-12-01T23:43:51.069Z,100.00
2022-12-01T23:46:39.587Z,100.00
2022-12-01T23:49:31.343Z,100.00
2022-12-01T23:52:21.051Z,100.00
2022-12-01T23:55:17.640Z,100.00
2022-12-01T23:58:06.155Z,100.00
